Time;durP1;ratioP1;P1;durP2;ratioP2;P2;SDS_P1;SDS_P2;PMS_P1;PMS_P2;Temp;Humidity;BMP_temperature;BMP_pressure;BME280_temperature;BME280_humidity;BME280_pressure;Samples;Min_cycle;Max_cycle;Signal;HPM_P1;HPM_P2
2021/07/11 00:00:28;;;;;;;11.33;9.07;;;;;;;15.93;88.20;100874.01;125015;1092;64224;-84
2021/07/11 00:02:55;;;;;;;15.67;10.10;;;;;;;15.92;88.42;100872.34;125214;1092;64284;-83
2021/07/11 00:05:24;;;;;;;14.13;10.53;;;;;;;15.92;88.87;100869.67;125026;1093;64310;-83
2021/07/11 00:07:51;;;;;;;12.93;10.23;;;;;;;15.90;88.74;100873.39;125042;1092;65407;-83
2021/07/11 00:10:20;;;;;;;15.03;10.40;;;;;;;15.90;88.91;100865.36;124967;1093;64380;-83
2021/07/11 00:12:48;;;;;;;17.07;10.83;;;;;;;15.88;88.85;100859.39;125249;1093;64387;-83
2021/07/11 00:15:19;;;;;;;15.53;10.90;;;;;;;15.85;88.96;100857.14;125284;1093;64311;-85
2021/07/11 00:17:47;;;;;;;20.37;11.27;;;;;;;15.85;88.82;100862.50;126922;1093;64207;-85
2021/07/11 00:20:18;;;;;;;13.27;9.90;;;;;;;15.81;88.73;100857.73;124936;1093;64326;-83
2021/07/11 00:22:45;;;;;;;14.27;9.93;;;;;;;15.76;89.05;100855.68;125155;1093;64319;-83
2021/07/11 00:25:14;;;;;;;12.57;10.10;;;;;;;15.73;89.23;100850.76;125004;1093;64776;-83
2021/07/11 00:27:42;;;;;;;12.10;9.87;;;;;;;15.73;89.66;100850.76;125191;1093;64311;-83
2021/07/11 00:30:11;;;;;;;15.57;10.50;;;;;;;15.75;89.65;100856.73;125849;1093;64228;-83
2021/07/11 00:32:39;;;;;;;21.30;11.40;;;;;;;15.74;89.24;100856.92;126098;1092;65014;-83
2021/07/11 00:35:07;;;;;;;12.33;10.43;;;;;;;15.73;89.87;100848.08;125031;1093;64425;-82
2021/07/11 00:37:35;;;;;;;14.20;10.50;;;;;;;15.73;89.91;100850.76;124969;1093;64311;-82
2021/07/11 00:40:04;;;;;;;13.10;9.77;;;;;;;15.73;89.85;100847.27;125113;1092;64288;-82
2021/07/11 00:42:31;;;;;;;14.80;10.53;;;;;;;15.75;89.93;100847.89;125570;1093;64389;-83
2021/07/11 00:44:59;;;;;;;11.67;9.50;;;;;;;15.76;89.88;100854.87;127301;1093;64225;-82
2021/07/11 00:47:26;;;;;;;15.40;10.13;;;;;;;15.77;90.14;100848.47;125921;1092;64371;-81
2021/07/11 00:49:53;;;;;;;12.67;9.60;;;;;;;15.79;90.17;100849.94;125124;1093;64294;-82
2021/07/11 00:52:20;;;;;;;15.00;10.13;;;;;;;15.82;90.21;100852.19;124942;1092;64291;-82
2021/07/11 00:54:47;;;;;;;14.60;11.20;;;;;;;15.85;90.25;100859.82;124998;1093;64348;-82
2021/07/11 00:57:15;;;;;;;15.20;10.13;;;;;;;15.87;90.07;100860.44;125115;1093;64208;-82
2021/07/11 00:59:42;;;;;;;14.23;11.40;;;;;;;15.87;89.94;100856.92;125047;1093;64254;-82
2021/07/11 01:02:18;;;;;;;15.63;10.50;;;;;;;15.87;89.98;100859.59;125184;1091;64231;-81
2021/07/11 01:04:50;;;;;;;16.40;11.15;;;;;;;15.85;89.85;100862.50;125106;1092;64342;-81
2021/07/11 01:07:31;;;;;;;17.77;10.83;;;;;;;15.83;89.73;100856.53;125026;1093;64449;-82
2021/07/11 01:10:13;;;;;;;15.10;9.57;;;;;;;15.80;89.63;100851.57;125017;1093;64269;-83
2021/07/11 01:12:46;;;;;;;13.73;10.03;;;;;;;15.79;90.28;100860.64;125038;1093;64234;-82
2021/07/11 01:15:14;;;;;;;13.57;10.63;;;;;;;15.79;90.23;100865.98;125397;1093;64918;-82
2021/07/11 01:17:42;;;;;;;15.20;10.27;;;;;;;15.77;90.49;100862.70;125081;1092;64387;-84
2021/07/11 01:20:10;;;;;;;17.25;10.00;;;;;;;15.77;90.46;100860.02;125295;1093;64304;-84
2021/07/11 01:22:46;;;;;;;12.27;10.27;;;;;;;15.78;90.37;100853.63;125258;1092;64210;-83
2021/07/11 01:25:34;;;;;;;12.93;10.37;;;;;;;15.79;90.40;100860.64;126217;1092;64250;-82
2021/07/11 01:28:06;;;;;;;12.45;10.25;;;;;;;15.75;90.49;100854.05;126419;1092;64211;-83
2021/07/11 01:30:35;;;;;;;15.03;11.50;;;;;;;15.72;90.49;100857.12;125040;1093;64385;-83
2021/07/11 01:33:05;;;;;;;12.83;9.30;;;;;;;15.67;90.45;100856.89;125218;1093;64241;-82
2021/07/11 01:35:33;;;;;;;12.60;9.07;;;;;;;15.64;90.44;100862.63;125506;1093;64208;-81
2021/07/11 01:38:00;;;;;;;11.73;9.27;;;;;;;15.59;90.27;100870.45;125006;1092;64388;-83
2021/07/11 01:40:29;;;;;;;13.33;7.70;;;;;;;15.50;90.30;100862.63;125344;1093;64308;-83
2021/07/11 01:42:57;;;;;;;12.63;9.10;;;;;;;15.47;90.63;100868.39;125490;1093;64374;-83
2021/07/11 01:45:24;;;;;;;17.47;9.97;;;;;;;15.44;90.57;100866.10;124963;1092;64234;-82
2021/07/11 01:47:54;;;;;;;15.80;8.70;;;;;;;15.43;90.82;100861.80;125062;1093;64818;-83
2021/07/11 01:50:22;;;;;;;12.47;9.80;;;;;;;15.44;91.45;100855.41;125452;1093;64331;-82
2021/07/11 01:52:51;;;;;;;11.33;8.60;;;;;;;15.48;91.55;100853.98;126700;1093;64188;-83
2021/07/11 01:55:18;;;;;;;13.90;10.20;;;;;;;15.53;91.72;100856.03;125757;1093;64284;-82
2021/07/11 01:57:46;;;;;;;13.73;9.40;;;;;;;15.55;91.25;100853.17;125033;1092;64307;-81
2021/07/11 02:00:15;;;;;;;15.77;9.27;;;;;;;15.56;91.42;100860.18;125665;1093;64327;-83
2021/07/11 02:02:47;;;;;;;12.63;9.60;;;;;;;15.57;91.69;100857.28;127642;1092;64062;-83
2021/07/11 02:05:16;;;;;;;13.83;10.60;;;;;;;15.59;91.17;100849.06;127637;1092;62527;-83
2021/07/11 02:07:45;;;;;;;12.85;9.70;;;;;;;15.58;91.14;100844.75;127509;1093;64204;-83
2021/07/11 02:10:16;;;;;;;13.47;9.97;;;;;;;15.59;91.13;100849.88;127755;1092;61823;-83
2021/07/11 02:13:15;;;;;;;11.27;9.73;;;;;;;15.61;91.42;100847.01;127525;1092;62743;-83
2021/07/11 02:15:48;;;;;;;14.37;9.73;;;;;;;15.61;91.29;100841.66;125326;1093;64300;-84
2021/07/11 02:18:27;;;;;;;13.67;9.20;;;;;;;15.62;91.26;100841.46;125653;1093;64315;-82
2021/07/11 02:20:55;;;;;;;17.27;11.53;;;;;;;15.62;91.31;100832.59;125040;1093;64288;-83
2021/07/11 02:23:25;;;;;;;13.63;9.00;;;;;;;15.59;91.07;100835.69;125139;1091;64395;-82
2021/07/11 02:25:53;;;;;;;12.60;10.37;;;;;;;15.54;91.29;100835.50;125078;1093;64211;-82
2021/07/11 02:28:21;;;;;;;12.13;10.07;;;;;;;15.54;91.48;100830.14;125021;1093;64184;-82
2021/07/11 02:30:57;;;;;;;13.10;9.77;;;;;;;15.53;91.67;100839.18;124982;1093;64329;-84
2021/07/11 02:33:32;;;;;;;12.20;9.60;;;;;;;15.50;91.80;100830.53;125057;1093;64303;-81
2021/07/11 02:36:01;;;;;;;12.00;9.83;;;;;;;15.49;91.29;100828.06;124999;1093;64394;-82
2021/07/11 02:38:39;;;;;;;11.57;9.07;;;;;;;15.45;91.36;100841.03;125026;1092;64233;-81
2021/07/11 02:41:07;;;;;;;10.53;8.93;;;;;;;15.41;91.17;100830.95;125144;1093;64293;-84
2021/07/11 02:43:35;;;;;;;10.37;8.30;;;;;;;15.38;91.46;100840.18;124846;1093;64208;-82
2021/07/11 02:46:02;;;;;;;10.47;9.10;;;;;;;15.36;91.47;100834.21;125135;1092;64304;-83
2021/07/11 02:48:30;;;;;;;18.10;10.33;;;;;;;15.31;91.10;100834.01;125069;1093;64261;-82
2021/07/11 02:50:58;;;;;;;13.40;9.77;;;;;;;15.24;91.31;100830.52;125101;1092;64285;-83
2021/07/11 02:53:28;;;;;;;13.00;9.65;;;;;;;15.21;91.52;100833.57;124977;1092;64304;-83
2021/07/11 02:55:57;;;;;;;14.43;10.43;;;;;;;15.17;91.81;100825.13;124950;1093;64231;-84
2021/07/11 02:58:27;;;;;;;11.57;9.57;;;;;;;15.13;91.82;100829.25;125054;1093;64748;-82
2021/07/11 03:00:56;;;;;;;13.60;8.97;;;;;;;15.07;91.42;100825.53;124896;1093;64307;-82
2021/07/11 03:03:25;;;;;;;13.93;10.33;;;;;;;15.01;91.84;100820.98;125039;1092;64246;-84
2021/07/11 03:05:54;;;;;;;12.30;9.70;;;;;;;14.98;91.65;100825.89;125043;1092;64344;-84
2021/07/11 03:08:23;;;;;;;11.97;9.33;;;;;;;14.95;92.07;100831.66;125474;1093;64307;-84
2021/07/11 03:10:50;;;;;;;12.13;9.53;;;;;;;14.93;92.40;100837.19;125029;1093;64282;-82
2021/07/11 03:13:18;;;;;;;11.57;8.97;;;;;;;14.92;92.52;100827.55;124929;1093;64388;-83
2021/07/11 03:15:46;;;;;;;12.70;9.00;;;;;;;14.90;92.45;100848.29;124990;1093;64311;-82
2021/07/11 03:18:14;;;;;;;12.83;10.30;;;;;;;14.85;92.28;100845.38;125038;1093;64565;-82
2021/07/11 03:20:45;;;;;;;12.80;9.47;;;;;;;14.81;92.57;100846.79;125175;1093;64322;-83
2021/07/11 03:23:12;;;;;;;10.70;8.73;;;;;;;14.75;91.94;100848.43;125097;1092;64307;-82
2021/07/11 03:25:39;;;;;;;12.03;8.93;;;;;;;14.72;92.36;100842.66;125104;1093;64300;-83
2021/07/11 03:28:07;;;;;;;13.87;9.57;;;;;;;14.70;92.99;100839.36;124913;1093;64346;-81
2021/07/11 03:30:41;;;;;;;11.50;8.03;;;;;;;14.70;93.06;100840.17;125073;1093;64254;-83
2021/07/11 03:33:09;;;;;;;13.90;9.15;;;;;;;14.69;92.75;100841.20;125558;1093;64230;-84
2021/07/11 03:35:51;;;;;;;14.50;9.33;;;;;;;14.70;92.72;100858.05;126016;1092;64651;-83
2021/07/11 03:38:21;;;;;;;12.47;9.47;;;;;;;14.68;92.75;100848.41;128239;1092;61823;-83
2021/07/11 03:40:53;;;;;;;11.80;9.23;;;;;;;14.70;92.98;100844.70;127818;1092;64379;-83
2021/07/11 03:43:25;;;;;;;12.20;9.37;;;;;;;14.72;92.99;100842.66;126357;1093;64377;-84
2021/07/11 03:45:57;;;;;;;11.60;9.20;;;;;;;14.75;93.08;100845.76;125483;1093;64289;-82
2021/07/11 03:48:31;;;;;;;15.63;9.77;;;;;;;14.80;93.20;100845.16;125370;1092;64317;-82
2021/07/11 03:51:04;;;;;;;11.50;9.45;;;;;;;14.82;93.17;100843.11;125248;1092;64834;-82
2021/07/11 03:53:33;;;;;;;12.33;9.20;;;;;;;14.85;92.82;100851.56;125074;1093;64326;-82
2021/07/11 03:56:03;;;;;;;13.87;9.47;;;;;;;14.88;92.59;100851.15;124933;1093;64445;-82
2021/07/11 03:58:36;;;;;;;11.17;8.30;;;;;;;14.91;92.85;100851.77;125116;1093;64632;-82
2021/07/11 04:01:05;;;;;;;14.17;9.70;;;;;;;14.94;92.83;100857.55;125108;1093;64459;-82
2021/07/11 04:03:37;;;;;;;12.67;10.17;;;;;;;14.95;92.86;100858.37;125150;1093;64229;-81
2021/07/11 04:06:09;;;;;;;14.90;10.60;;;;;;;14.96;92.75;100863.52;125082;1092;64447;-81
2021/07/11 04:08:39;;;;;;;12.97;10.07;;;;;;;14.98;92.80;100863.30;125100;1093;64568;-83
2021/07/11 04:11:07;;;;;;;13.60;9.83;;;;;;;15.00;93.01;100867.44;125181;1092;64214;-82
2021/07/11 04:13:34;;;;;;;14.30;11.00;;;;;;;15.03;92.81;100856.34;125099;1093;64239;-82
2021/07/11 04:16:05;;;;;;;14.40;10.50;;;;;;;15.06;92.76;100866.61;125317;1092;64457;-85
2021/07/11 04:18:43;;;;;;;12.70;9.47;;;;;;;15.12;92.91;100866.85;125506;1093;64275;-81
2021/07/11 04:21:12;;;;;;;12.57;9.87;;;;;;;15.20;92.99;100862.15;125413;1092;64437;-83
2021/07/11 04:23:40;;;;;;;14.93;10.20;;;;;;;15.26;92.81;100871.22;125248;1092;64289;-81
2021/07/11 04:26:09;;;;;;;15.30;11.45;;;;;;;15.31;92.96;100871.43;125203;1091;64302;-82
2021/07/11 04:28:38;;;;;;;15.47;12.13;;;;;;;15.36;92.64;100876.98;125356;1092;64287;-82
2021/07/11 04:31:06;;;;;;;15.13;11.70;;;;;;;15.41;92.44;100876.40;125504;1093;64176;-82
2021/07/11 04:33:34;;;;;;;12.93;10.83;;;;;;;15.44;92.47;100868.78;125385;1093;64460;-81
2021/07/11 04:36:04;;;;;;;19.00;10.00;;;;;;;15.52;92.42;100872.30;125469;1093;64290;-81
2021/07/11 04:38:31;;;;;;;12.57;9.90;;;;;;;15.61;92.66;100871.89;125424;1093;64236;-81
2021/07/11 04:40:59;;;;;;;16.23;11.03;;;;;;;15.68;92.40;100864.72;125301;1093;64173;-81
2021/07/11 04:43:27;;;;;;;15.55;11.40;;;;;;;15.80;92.63;100872.16;125247;1093;64356;-81
2021/07/11 04:45:54;;;;;;;13.53;11.37;;;;;;;15.89;92.10;100877.08;125186;1092;64895;-81
2021/07/11 04:48:22;;;;;;;13.67;11.47;;;;;;;15.98;92.13;100874.20;125659;1093;64204;-82
2021/07/11 04:50:49;;;;;;;14.53;12.53;;;;;;;16.05;91.75;100878.53;125347;1093;64384;-81
2021/07/11 04:53:17;;;;;;;16.10;12.37;;;;;;;16.16;91.58;100874.41;125344;1093;64246;-81
2021/07/11 04:55:45;;;;;;;17.53;13.20;;;;;;;16.26;91.25;100868.64;125480;1092;64275;-82
2021/07/11 04:58:16;;;;;;;15.13;11.80;;;;;;;16.34;90.89;100872.94;125011;1093;64244;-83
2021/07/11 05:00:43;;;;;;;18.57;12.13;;;;;;;16.43;90.90;100872.52;125173;1092;64304;-81
2021/07/11 05:03:11;;;;;;;16.83;11.97;;;;;;;16.51;90.54;100877.66;125679;1093;64407;-82
2021/07/11 05:05:38;;;;;;;19.40;13.03;;;;;;;16.61;90.40;100871.84;125242;1092;64322;-81
2021/07/11 05:08:05;;;;;;;13.63;9.47;;;;;;;16.67;89.87;100872.88;125328;1093;64330;-82
2021/07/11 05:10:33;;;;;;;13.53;11.07;;;;;;;16.74;90.01;100870.98;125295;1093;64297;-82
2021/07/11 05:12:59;;;;;;;14.57;11.90;;;;;;;16.79;89.58;100876.55;125380;1093;64288;-81
2021/07/11 05:15:28;;;;;;;13.60;11.37;;;;;;;16.86;89.41;100871.19;125405;1092;64265;-83
2021/07/11 05:17:55;;;;;;;19.87;12.43;;;;;;;16.96;89.13;100876.92;126718;1093;63031;-83
2021/07/11 05:20:22;;;;;;;16.40;12.50;;;;;;;17.01;88.76;100878.97;125902;1093;64394;-84
2021/07/11 05:22:50;;;;;;;15.70;11.93;;;;;;;17.12;89.03;100889.82;125467;1093;65517;-83
2021/07/11 05:25:17;;;;;;;16.03;11.90;;;;;;;17.24;88.81;100884.63;125435;1093;64301;-82
2021/07/11 05:27:44;;;;;;;16.47;11.60;;;;;;;17.39;88.53;100889.70;125405;1093;64300;-82
2021/07/11 05:30:11;;;;;;;14.30;11.40;;;;;;;17.51;88.12;100885.30;125349;1092;64717;-82
2021/07/11 05:32:38;;;;;;;13.40;10.93;;;;;;;17.64;87.44;100878.20;125416;1093;64173;-85
2021/07/11 05:35:06;;;;;;;14.13;11.27;;;;;;;17.73;86.39;100887.63;124946;1093;64176;-82
2021/07/11 05:37:34;;;;;;;12.63;10.60;;;;;;;17.76;85.81;100875.63;125279;1093;64284;-82
2021/07/11 05:40:02;;;;;;;13.90;10.33;;;;;;;17.84;85.66;100884.26;125188;1093;64381;-82
2021/07/11 05:42:29;;;;;;;13.40;10.73;;;;;;;17.95;85.61;100876.55;125124;1093;64296;-81
2021/07/11 05:44:56;;;;;;;15.50;10.13;;;;;;;18.06;85.46;100879.34;125045;1093;64211;-82
2021/07/11 05:47:24;;;;;;;12.07;9.83;;;;;;;18.19;85.20;100870.35;125096;1093;64282;-83
2021/07/11 05:49:51;;;;;;;14.20;10.37;;;;;;;18.29;84.75;100869.83;125153;1093;64198;-82
2021/07/11 05:52:20;;;;;;;13.03;11.00;;;;;;;18.36;84.61;100867.07;125122;1093;64299;-83
2021/07/11 05:54:47;;;;;;;13.67;11.27;;;;;;;18.45;84.44;100868.44;125137;1092;64239;-83
2021/07/11 05:57:14;;;;;;;13.97;10.60;;;;;;;18.55;84.42;100874.09;125161;1093;64227;-82
2021/07/11 05:59:41;;;;;;;12.40;10.03;;;;;;;18.66;83.59;100876.05;125328;1092;64409;-82
2021/07/11 06:02:08;;;;;;;12.33;9.77;;;;;;;18.80;83.43;100878.61;125306;1092;64283;-71
2021/07/11 06:04:35;;;;;;;14.07;10.13;;;;;;;18.90;82.80;100876.22;124886;1093;64277;-72
2021/07/11 06:07:02;;;;;;;17.57;12.47;;;;;;;18.96;82.53;100872.63;124899;1091;64282;-72
2021/07/11 06:09:30;;;;;;;17.23;11.77;;;;;;;19.05;82.15;100876.64;124699;1092;64734;-72
2021/07/11 06:11:57;;;;;;;13.43;11.07;;;;;;;19.15;81.76;100873.43;124885;1093;64285;-73
2021/07/11 06:14:24;;;;;;;11.60;9.70;;;;;;;19.28;81.83;100877.80;124863;1092;65184;-72
2021/07/11 06:16:51;;;;;;;14.53;11.77;;;;;;;19.38;81.44;100888.84;124883;1093;64982;-74
2021/07/11 06:19:19;;;;;;;13.17;10.10;;;;;;;19.49;81.18;100877.28;125197;1093;64261;-73
2021/07/11 06:21:46;;;;;;;14.60;10.63;;;;;;;19.53;79.80;100874.97;124842;1093;64173;-75
2021/07/11 06:24:13;;;;;;;11.70;9.50;;;;;;;19.61;80.34;100869.23;124881;1093;64294;-73
2021/07/11 06:26:40;;;;;;;12.77;10.73;;;;;;;19.73;79.87;100877.38;124844;1093;64261;-75
2021/07/11 06:29:07;;;;;;;11.63;9.47;;;;;;;19.84;78.39;100881.95;124903;1093;65481;-74
2021/07/11 06:31:34;;;;;;;13.20;11.40;;;;;;;19.90;78.56;100878.33;124926;1092;64301;-75
2021/07/11 06:34:02;;;;;;;10.90;9.70;;;;;;;20.01;77.86;100875.89;124909;1092;64664;-76
2021/07/11 06:36:32;;;;;;;9.50;8.20;;;;;;;20.12;76.74;100878.56;124885;1093;64361;-75
2021/07/11 06:39:00;;;;;;;14.23;10.43;;;;;;;20.22;77.01;100880.69;124902;1093;64911;-74
2021/07/11 06:41:27;;;;;;;10.67;8.00;;;;;;;20.33;75.68;100879.05;124788;1093;64287;-75
2021/07/11 06:43:54;;;;;;;13.23;11.03;;;;;;;20.42;76.10;100874.11;124952;1093;64307;-76
2021/07/11 06:46:21;;;;;;;9.10;7.57;;;;;;;20.56;75.82;100870.12;124894;1093;64301;-74
2021/07/11 06:48:49;;;;;;;12.90;8.20;;;;;;;20.65;75.02;100867.91;124881;1093;64304;-75
2021/07/11 06:51:18;;;;;;;7.80;6.20;;;;;;;20.76;75.25;100862.50;124888;1093;64288;-73
2021/07/11 06:53:45;;;;;;;10.33;8.53;;;;;;;20.93;75.19;100875.21;125065;1093;64293;-75
2021/07/11 06:56:12;;;;;;;14.47;10.07;;;;;;;21.09;74.74;100877.16;124963;1093;64273;-73
2021/07/11 06:58:40;;;;;;;9.37;8.40;;;;;;;21.27;73.79;100876.16;124893;1093;64273;-74
2021/07/11 07:01:07;;;;;;;13.23;10.93;;;;;;;21.43;72.64;100881.86;124962;1093;64208;-76
2021/07/11 07:03:34;;;;;;;10.03;8.23;;;;;;;21.55;71.06;100875.34;124878;1093;64249;-73
2021/07/11 07:06:01;;;;;;;11.73;9.43;;;;;;;21.70;70.55;100879.37;124922;1093;64625;-73
2021/07/11 07:08:28;;;;;;;13.90;9.73;;;;;;;21.79;70.58;100885.98;124958;1093;64214;-74
2021/07/11 07:10:55;;;;;;;10.93;8.77;;;;;;;21.91;69.84;100878.63;124908;1093;64323;-73
2021/07/11 07:13:22;;;;;;;10.20;9.17;;;;;;;22.01;69.25;100877.95;124946;1093;64358;-75
2021/07/11 07:15:50;;;;;;;11.10;8.90;;;;;;;22.11;69.12;100872.71;124952;1092;64256;-73
2021/07/11 07:18:17;;;;;;;11.20;9.10;;;;;;;22.22;69.06;100879.08;125217;1092;64307;-73
2021/07/11 07:20:44;;;;;;;11.53;9.17;;;;;;;22.32;67.64;100879.27;124942;1092;64300;-71
2021/07/11 07:23:11;;;;;;;10.87;8.07;;;;;;;22.39;66.46;100879.89;124905;1093;64304;-73
2021/07/11 07:25:38;;;;;;;12.93;7.83;;;;;;;22.52;66.50;100883.31;124701;1093;64326;-73
2021/07/11 07:28:10;;;;;;;9.57;7.20;;;;;;;22.60;65.69;100867.47;124958;1092;64304;-74
2021/07/11 07:30:38;;;;;;;9.67;7.93;;;;;;;22.74;65.87;100878.75;124905;1093;64699;-74
2021/07/11 07:33:05;;;;;;;9.87;8.60;;;;;;;22.85;65.90;100870.76;125055;1093;64288;-73
2021/07/11 07:35:32;;;;;;;8.90;8.00;;;;;;;22.90;64.74;100868.91;124903;1093;64293;-74
2021/07/11 07:37:59;;;;;;;9.33;8.37;;;;;;;22.91;63.75;100867.86;124877;1093;64454;-73
2021/07/11 07:40:26;;;;;;;8.63;7.73;;;;;;;22.98;63.69;100867.66;124934;1093;64354;-74
2021/07/11 07:42:54;;;;;;;9.10;8.20;;;;;;;23.06;64.49;100866.41;124805;1092;64281;-73
2021/07/11 07:45:21;;;;;;;8.93;7.77;;;;;;;23.13;62.82;100875.16;124909;1093;64246;-75
2021/07/11 07:47:48;;;;;;;9.10;8.10;;;;;;;23.16;61.97;100872.77;124890;1093;64304;-74
2021/07/11 07:50:16;;;;;;;8.70;7.53;;;;;;;23.20;62.23;100865.75;124874;1093;64464;-74
2021/07/11 07:52:43;;;;;;;8.80;7.20;;;;;;;23.22;62.42;100881.74;124878;1093;64357;-74
2021/07/11 07:55:11;;;;;;;7.43;6.33;;;;;;;23.23;60.03;100883.39;124896;1093;64247;-73
2021/07/11 07:57:39;;;;;;;9.03;7.87;;;;;;;23.16;60.75;100878.19;124876;1093;64982;-73
2021/07/11 08:00:11;;;;;;;13.20;8.77;;;;;;;23.16;61.62;100882.75;125128;1093;64287;-74
2021/07/11 08:02:39;;;;;;;10.63;8.03;;;;;;;23.23;62.79;100872.56;124825;1093;64381;-72
2021/07/11 08:05:08;;;;;;;7.23;6.43;;;;;;;23.28;60.92;100874.50;124645;1093;64396;-73
2021/07/11 08:07:35;;;;;;;8.73;7.60;;;;;;;23.33;60.67;100877.25;124925;1093;64285;-73
2021/07/11 08:10:06;;;;;;;6.30;5.63;;;;;;;23.36;59.45;100876.75;124907;1093;64424;-73
2021/07/11 08:12:33;;;;;;;8.13;7.33;;;;;;;23.37;59.42;100868.35;124884;1093;64301;-72
2021/07/11 08:15:00;;;;;;;8.63;7.73;;;;;;;23.47;60.40;100878.48;124842;1092;64288;-73
2021/07/11 08:17:27;;;;;;;9.23;7.30;;;;;;;23.53;60.61;100877.45;124847;1093;64307;-75
2021/07/11 08:19:55;;;;;;;9.37;7.53;;;;;;;23.63;60.50;100868.58;124906;1093;64301;-74
2021/07/11 08:22:22;;;;;;;7.80;7.00;;;;;;;23.78;61.00;100873.34;124828;1093;64777;-74
2021/07/11 08:24:49;;;;;;;9.87;7.40;;;;;;;23.96;60.09;100875.66;124896;1093;64361;-74
2021/07/11 08:27:16;;;;;;;8.63;7.47;;;;;;;24.07;59.57;100873.84;124873;1093;64297;-75
2021/07/11 08:29:43;;;;;;;8.40;6.93;;;;;;;24.15;58.79;100883.38;124876;1093;64281;-75
2021/07/11 08:32:10;;;;;;;8.90;7.17;;;;;;;24.24;58.60;100876.38;124839;1093;64310;-76
2021/07/11 08:34:37;;;;;;;10.90;7.33;;;;;;;24.33;57.46;100874.83;124812;1092;64357;-73
2021/07/11 08:37:05;;;;;;;8.83;6.40;;;;;;;24.43;57.75;100874.86;124875;1093;64278;-74
2021/07/11 08:39:36;;;;;;;7.97;7.10;;;;;;;24.53;56.15;100887.70;124870;1093;64428;-76
2021/07/11 08:42:08;;;;;;;10.20;6.93;;;;;;;24.56;56.55;100879.02;124935;1093;64291;-75
2021/07/11 08:44:35;;;;;;;7.20;5.80;;;;;;;24.62;54.78;100885.30;124982;1093;64313;-74
2021/07/11 08:47:03;;;;;;;6.20;5.60;;;;;;;24.69;55.68;100888.58;124855;1092;64307;-74
2021/07/11 08:49:31;;;;;;;9.17;6.17;;;;;;;24.69;55.97;100894.00;124997;1093;64279;-75
2021/07/11 08:52:00;;;;;;;8.17;5.70;;;;;;;24.71;56.17;100897.27;124799;1093;64374;-74
2021/07/11 08:54:27;;;;;;;9.20;6.10;;;;;;;24.79;56.21;100899.48;124817;1093;64569;-73
2021/07/11 08:56:59;;;;;;;9.97;6.97;;;;;;;24.81;56.10;100902.74;124884;1093;64380;-72
2021/07/11 08:59:29;;;;;;;6.75;6.05;;;;;;;24.85;56.27;100897.61;124939;1093;64378;-75
2021/07/11 09:01:57;;;;;;;10.03;7.10;;;;;;;24.88;56.39;100897.06;125091;1093;64288;-74
2021/07/11 09:04:25;;;;;;;7.00;6.25;;;;;;;24.83;53.80;100899.77;125001;1093;64214;-74
2021/07/11 09:06:55;;;;;;;10.20;6.93;;;;;;;24.78;56.08;100900.58;124800;1093;64304;-75
2021/07/11 09:09:26;;;;;;;8.83;7.10;;;;;;;24.92;55.61;100891.94;124915;1093;64262;-74
2021/07/11 09:12:01;;;;;;;8.70;6.20;;;;;;;25.04;55.85;100900.66;124851;1093;64288;-74
2021/07/11 09:14:30;;;;;;;8.70;7.70;;;;;;;25.13;56.89;100896.34;124943;1092;64285;-75
2021/07/11 09:16:59;;;;;;;8.53;6.60;;;;;;;25.20;55.51;100899.66;124926;1093;64429;-74
2021/07/11 09:19:48;;;;;;;7.33;6.23;;;;;;;25.03;54.64;100899.02;125062;1093;64430;-75
2021/07/11 09:22:17;;;;;;;7.40;6.67;;;;;;;24.78;55.43;100897.05;124959;1093;64289;-73
2021/07/11 09:24:51;;;;;;;5.70;5.10;;;;;;;24.64;56.80;100899.41;125004;1092;64281;-75
2021/07/11 09:27:20;;;;;;;6.93;6.07;;;;;;;24.48;56.86;100892.23;124908;1093;64311;-75
2021/07/11 09:29:48;;;;;;;9.40;7.50;;;;;;;24.32;57.99;100905.72;124944;1093;64371;-74
2021/07/11 09:32:36;;;;;;;10.13;8.03;;;;;;;24.12;59.34;100905.57;124891;1093;64352;-73
2021/07/11 09:35:15;;;;;;;10.70;8.87;;;;;;;23.99;59.70;100906.83;124890;1093;64381;-73
2021/07/11 09:38:00;;;;;;;8.83;7.93;;;;;;;23.94;60.39;100920.35;125003;1092;64304;-73
2021/07/11 09:40:28;;;;;;;8.50;7.60;;;;;;;23.86;60.51;100908.09;124928;1093;64233;-75
2021/07/11 09:42:57;;;;;;;9.63;7.93;;;;;;;23.77;60.98;100904.23;124867;1093;64296;-74
2021/07/11 09:45:27;;;;;;;8.17;7.13;;;;;;;23.79;61.31;100908.30;124987;1093;64258;-74
2021/07/11 09:48:05;;;;;;;7.70;6.77;;;;;;;23.89;60.50;100906.78;125002;1093;64323;-71
2021/07/11 09:50:33;;;;;;;7.93;7.13;;;;;;;24.12;60.96;100913.70;124915;1093;64090;-73
2021/07/11 09:53:01;;;;;;;9.40;7.33;;;;;;;24.42;61.31;100910.40;124995;1092;64293;-74
2021/07/11 09:55:30;;;;;;;8.53;7.63;;;;;;;24.71;59.95;100908.12;124874;1093;64419;-74
2021/07/11 09:57:59;;;;;;;8.60;7.63;;;;;;;25.04;58.26;100911.52;124999;1092;64293;-72
2021/07/11 10:00:31;;;;;;;7.93;6.67;;;;;;;25.39;57.39;100915.44;125057;1092;64373;-72
2021/07/11 10:03:05;;;;;;;8.33;6.70;;;;;;;25.64;56.50;100918.19;124905;1093;64357;-73
2021/07/11 10:05:33;;;;;;;8.83;7.67;;;;;;;25.87;55.45;100907.88;124960;1093;64290;-73
2021/07/11 10:08:00;;;;;;;7.97;6.97;;;;;;;26.03;55.53;100912.25;124958;1093;64354;-74
2021/07/11 10:10:30;;;;;;;6.50;5.73;;;;;;;26.16;54.67;100910.05;124893;1093;64405;-74
2021/07/11 10:12:58;;;;;;;7.83;5.00;;;;;;;26.30;53.75;100911.11;124748;1093;64346;-74
2021/07/11 10:15:29;;;;;;;6.97;5.83;;;;;;;26.43;53.00;100909.72;124984;1093;64246;-74
2021/07/11 10:18:09;;;;;;;7.07;5.93;;;;;;;26.50;52.94;100907.55;124927;1093;64287;-73
2021/07/11 10:20:45;;;;;;;8.05;6.30;;;;;;;26.63;52.05;100903.45;124881;1092;64346;-73
2021/07/11 10:23:38;;;;;;;7.17;6.10;;;;;;;26.81;52.19;100905.54;124920;1092;64377;-75
2021/07/11 10:26:12;;;;;;;6.40;5.73;;;;;;;27.13;51.51;100909.74;124856;1092;64307;-73
2021/07/11 10:28:50;;;;;;;6.20;4.97;;;;;;;27.32;49.86;100904.48;125016;1093;64288;-72
2021/07/11 10:31:25;;;;;;;5.63;4.63;;;;;;;27.54;50.00;100900.52;125031;1093;64667;-72
2021/07/11 10:33:56;;;;;;;6.50;4.43;;;;;;;27.83;48.92;100895.12;124769;1093;64543;-74
2021/07/11 10:36:34;;;;;;;5.25;4.70;;;;;;;28.00;48.71;100889.27;124804;1093;64964;-75
2021/07/11 10:39:03;;;;;;;5.17;4.03;;;;;;;28.15;46.52;100894.57;124870;1092;64307;-74
2021/07/11 10:41:32;;;;;;;5.75;4.45;;;;;;;28.19;47.77;100901.08;125042;1092;64316;-76
2021/07/11 10:44:05;;;;;;;4.70;4.20;;;;;;;28.23;47.29;100901.32;124912;1093;64301;-73
2021/07/11 10:46:33;;;;;;;5.65;4.90;;;;;;;28.26;47.31;100898.00;124900;1093;64355;-76
2021/07/11 10:49:17;;;;;;;5.23;4.27;;;;;;;28.29;45.01;100897.45;124975;1093;64368;-75
2021/07/11 10:51:46;;;;;;;4.40;4.00;;;;;;;28.42;46.78;100899.47;125001;1093;64298;-76
2021/07/11 10:54:19;;;;;;;5.43;4.23;;;;;;;28.53;46.23;100899.39;125172;1093;64292;-75
2021/07/11 10:56:46;;;;;;;5.43;4.60;;;;;;;28.56;45.13;100888.72;124932;1093;64375;-74
2021/07/11 10:59:30;;;;;;;4.43;4.00;;;;;;;28.55;45.65;100887.08;125276;1092;64349;-74
2021/07/11 11:01:57;;;;;;;;;;;;;;;28.57;45.15;100889.52;125194;1092;64285;-74
2021/07/11 11:04:25;;;;;;;4.47;3.90;;;;;;;28.68;45.79;100885.55;124982;1093;64243;-74
2021/07/11 11:06:53;;;;;;;5.33;3.30;;;;;;;28.85;45.16;100888.60;125188;1093;64332;-73
2021/07/11 11:09:43;;;;;;;4.93;3.80;;;;;;;29.05;44.89;100883.97;125127;1093;64281;-74
2021/07/11 11:12:20;;;;;;;5.10;4.10;;;;;;;29.19;44.52;100889.55;125119;1092;64216;-75
2021/07/11 11:14:56;;;;;;;4.30;3.43;;;;;;;29.26;43.66;100882.63;125253;1093;64426;-74
2021/07/11 11:17:33;;;;;;;3.80;3.33;;;;;;;29.25;44.27;100878.25;125199;1093;64237;-73
2021/07/11 11:20:06;;;;;;;4.50;3.80;;;;;;;29.27;44.49;100875.23;124948;1092;64345;-74